Time;durP1;ratioP1;P1;durP2;ratioP2;P2;SDS_P1;SDS_P2;PMS_P1;PMS_P2;Temp;Humidity;BMP_temperature;BMP_pressure;BME280_temperature;BME280_humidity;BME280_pressure;Samples;Min_cycle;Max_cycle;Signal;HPM_P1;HPM_P2
2021/12/03 00:01:10;;;;;;;5.45;3.15;;;2.50;99.90;;;;;;5094731;28;20429;-84
2021/12/03 00:03:37;;;;;;;4.88;2.92;;;2.80;99.90;;;;;;5076234;28;20091;-84
2021/12/03 00:06:03;;;;;;;3.78;2.83;;;2.90;99.90;;;;;;5094232;28;20032;-83
2021/12/03 00:08:29;;;;;;;5.22;2.78;;;2.80;99.90;;;;;;5076673;28;20104;-84
2021/12/03 00:11:00;;;;;;;6.32;3.53;;;2.80;99.90;;;;;;5094212;28;20440;-83
2021/12/03 00:13:31;;;;;;;4.07;2.78;;;2.80;99.90;;;;;;5076077;28;20035;-83
2021/12/03 00:15:58;;;;;;;3.25;2.70;;;2.90;99.90;;;;;;5075651;28;20024;-81
2021/12/03 00:18:24;;;;;;;7.32;3.53;;;2.90;99.90;;;;;;5075917;28;20411;-83
2021/12/03 00:20:51;;;;;;;4.10;2.80;;;2.80;99.90;;;;;;5075912;28;20020;-83
2021/12/03 00:23:18;;;;;;;5.18;3.40;;;2.90;99.90;;;;;;5076217;28;20032;-83
2021/12/03 00:25:45;;;;;;;6.65;3.35;;;2.70;99.90;;;;;;5075957;28;20031;-83
2021/12/03 00:28:11;;;;;;;5.30;3.70;;;2.70;99.90;;;;;;5094013;28;20038;-83
2021/12/03 00:30:37;;;;;;;6.15;3.60;;;2.80;99.90;;;;;;5093925;28;20020;-83
2021/12/03 00:33:05;;;;;;;8.20;3.75;;;2.80;99.90;;;;;;5075603;28;20119;-83
2021/12/03 00:35:31;;;;;;;7.80;3.85;;;2.90;99.90;;;;;;5094091;28;20090;-83
2021/12/03 00:37:57;;;;;;;5.88;3.28;;;2.90;99.90;;;;;;5075330;28;20071;-83
2021/12/03 00:40:27;;;;;;;6.10;3.50;;;2.70;99.90;;;;;;5093736;28;20095;-83
2021/12/03 00:42:53;;;;;;;5.95;3.80;;;2.80;99.90;;;;;;5093945;28;20047;-83
2021/12/03 00:45:19;;;;;;;5.80;3.53;;;2.70;99.90;;;;;;5093607;28;20071;-83
2021/12/03 00:47:45;;;;;;;8.50;4.13;;;2.90;99.90;;;;;;5075363;28;20027;-83
2021/12/03 00:50:14;;;;;;;5.70;3.50;;;2.90;99.90;;;;;;5093549;28;20028;-83
2021/12/03 00:52:40;;;;;;;7.28;3.20;;;2.90;99.90;;;;;;5075404;28;20028;-83
2021/12/03 00:55:07;;;;;;;6.03;3.58;;;2.90;99.90;;;;;;5075232;28;20161;-83
2021/12/03 00:57:33;;;;;;;5.30;3.35;;;2.80;99.90;;;;;;5075302;28;20028;-83
2021/12/03 00:59:59;;;;;;;6.10;3.20;;;2.80;99.90;;;;;;5075205;28;20021;-83
2021/12/03 01:02:25;;;;;;;4.93;3.28;;;3.00;99.90;;;;;;5075249;28;20035;-83
2021/12/03 01:04:51;;;;;;;8.27;3.38;;;3.00;99.90;;;;;;5093244;28;20024;-83
2021/12/03 01:07:18;;;;;;;6.00;3.28;;;3.00;99.90;;;;;;5075094;28;20179;-83
2021/12/03 01:09:43;;;;;;;6.07;3.20;;;3.00;99.90;;;;;;5075117;28;20035;-83
2021/12/03 01:12:09;;;;;;;5.55;3.30;;;2.90;99.90;;;;;;5075408;28;20024;-83
2021/12/03 01:14:36;;;;;;;5.90;3.53;;;2.90;99.90;;;;;;5075097;28;20063;-83
2021/12/03 01:17:03;;;;;;;4.95;3.30;;;2.70;99.90;;;;;;5075009;28;20418;-83
2021/12/03 01:19:29;;;;;;;7.13;3.60;;;2.80;99.90;;;;;;5074947;28;20105;-83
2021/12/03 01:21:55;;;;;;;5.45;3.38;;;2.80;99.90;;;;;;5074900;28;20134;-83
2021/12/03 01:24:21;;;;;;;5.13;3.10;;;2.80;99.90;;;;;;5093190;28;20103;-83
2021/12/03 01:26:51;;;;;;;7.22;4.15;;;2.80;99.90;;;;;;5094190;28;20030;-83
2021/12/03 01:29:17;;;;;;;4.75;3.53;;;2.90;99.90;;;;;;5079156;28;20103;-83
2021/12/03 01:31:43;;;;;;;7.68;3.35;;;2.90;99.90;;;;;;5078983;28;20028;-83
2021/12/03 01:34:09;;;;;;;6.43;4.07;;;2.90;99.90;;;;;;5078895;28;20395;-83
2021/12/03 01:36:35;;;;;;;7.15;3.47;;;2.80;99.90;;;;;;5078899;28;20499;-83
2021/12/03 01:39:01;;;;;;;6.18;3.30;;;2.80;99.90;;;;;;5097582;28;20157;-83
2021/12/03 01:41:28;;;;;;;7.82;3.92;;;2.90;99.90;;;;;;5078792;28;20023;-83
2021/12/03 01:44:00;;;;;;;8.95;3.95;;;2.90;99.90;;;;;;5078785;28;20028;-83
2021/12/03 01:46:25;;;;;;;5.15;3.63;;;2.90;99.90;;;;;;5078837;28;20471;-83
2021/12/03 01:48:51;;;;;;;6.95;4.00;;;2.90;99.90;;;;;;5078666;28;20031;-83
2021/12/03 01:51:19;;;;;;;6.75;3.65;;;2.70;99.90;;;;;;5078613;28;20106;-83
2021/12/03 01:53:45;;;;;;;5.70;4.18;;;2.70;99.90;;;;;;5078629;28;20016;-83
2021/12/03 01:56:13;;;;;;;6.03;4.07;;;2.70;99.90;;;;;;5078555;28;20025;-83
2021/12/03 01:58:41;;;;;;;7.00;4.13;;;2.70;99.90;;;;;;5078587;28;20021;-83
2021/12/03 02:01:10;;;;;;;9.10;4.30;;;2.70;99.90;;;;;;5078810;28;20027;-83
2021/12/03 02:03:39;;;;;;;6.90;4.30;;;2.90;99.90;;;;;;5078438;28;20103;-83
2021/12/03 02:06:07;;;;;;;6.95;4.90;;;2.80;99.90;;;;;;5096577;28;20028;-83
2021/12/03 02:08:33;;;;;;;6.47;4.22;;;2.90;99.90;;;;;;5078442;28;20016;-83
2021/12/03 02:10:59;;;;;;;6.90;3.78;;;2.80;99.90;;;;;;5096585;28;20031;-83
2021/12/03 02:13:25;;;;;;;6.90;3.88;;;2.80;99.90;;;;;;5078356;28;20040;-83
2021/12/03 02:15:51;;;;;;;5.43;4.00;;;2.80;99.90;;;;;;5096775;28;20043;-83
2021/12/03 02:18:18;;;;;;;6.38;4.07;;;2.80;99.90;;;;;;5078216;28;20070;-83
2021/12/03 02:20:45;;;;;;;7.20;4.38;;;2.80;99.90;;;;;;5096357;28;20058;-83
2021/12/03 02:23:13;;;;;;;6.53;4.00;;;2.80;99.90;;;;;;5096330;28;20093;-83
2021/12/03 02:25:39;;;;;;;8.50;4.75;;;2.70;99.90;;;;;;5096233;28;20428;-83
2021/12/03 02:28:05;;;;;;;10.68;4.18;;;2.60;99.90;;;;;;5097738;28;20101;-83
2021/12/03 02:30:31;;;;;;;5.32;3.90;;;2.60;99.90;;;;;;5079453;28;20017;-82
2021/12/03 02:32:57;;;;;;;8.20;4.82;;;2.60;99.90;;;;;;5096654;28;20160;-83
2021/12/03 02:35:24;;;;;;;8.10;4.93;;;2.60;99.90;;;;;;5078077;28;20024;-83
2021/12/03 02:37:50;;;;;;;5.78;4.07;;;2.70;99.90;;;;;;5077625;28;20090;-83
2021/12/03 02:40:17;;;;;;;12.35;4.32;;;2.60;99.90;;;;;;5096320;28;20026;-83
2021/12/03 02:42:43;;;;;;;7.68;4.60;;;2.50;99.90;;;;;;5077831;28;20073;-84
2021/12/03 02:45:10;;;;;;;6.40;4.25;;;2.50;99.90;;;;;;5077631;28;20122;-83
2021/12/03 02:47:38;;;;;;;5.32;4.30;;;2.50;99.90;;;;;;5077695;28;20020;-83
2021/12/03 02:50:05;;;;;;;6.30;4.18;;;2.50;99.90;;;;;;5077623;28;20028;-83
2021/12/03 02:52:30;;;;;;;6.53;4.53;;;2.50;99.90;;;;;;5096027;28;20080;-83
2021/12/03 02:54:56;;;;;;;8.32;4.78;;;2.50;99.90;;;;;;5077587;28;20118;-83
2021/12/03 02:57:22;;;;;;;5.90;4.63;;;2.30;99.90;;;;;;5095709;28;20071;-83
2021/12/03 02:59:48;;;;;;;6.30;4.45;;;2.40;99.90;;;;;;5095662;28;20091;-83
2021/12/03 03:02:14;;;;;;;7.45;4.70;;;2.40;99.90;;;;;;5077447;28;20020;-83
2021/12/03 03:04:40;;;;;;;6.00;4.32;;;2.40;99.90;;;;;;5095561;28;20107;-83
2021/12/03 03:07:06;;;;;;;7.82;4.47;;;2.50;99.90;;;;;;5095849;28;20031;-83
2021/12/03 03:09:32;;;;;;;6.85;5.03;;;2.60;99.90;;;;;;5095481;28;20030;-83
2021/12/03 03:11:58;;;;;;;7.00;4.30;;;2.60;99.90;;;;;;5077288;28;20052;-83
2021/12/03 03:14:24;;;;;;;7.05;4.95;;;2.60;99.90;;;;;;5095394;28;20024;-83
2021/12/03 03:16:51;;;;;;;7.82;5.15;;;2.70;99.90;;;;;;5077171;28;20384;-83
2021/12/03 03:19:21;;;;;;;7.78;5.15;;;2.60;99.90;;;;;;5077191;28;20069;-83
2021/12/03 03:21:47;;;;;;;8.38;5.65;;;2.40;99.90;;;;;;5077069;28;20073;-83
2021/12/03 03:24:15;;;;;;;8.00;5.00;;;2.30;99.90;;;;;;5077015;28;20042;-84
2021/12/03 03:26:45;;;;;;;8.63;5.00;;;2.20;99.90;;;;;;5095069;28;20028;-84
2021/12/03 03:29:13;;;;;;;7.22;5.50;;;2.40;99.90;;;;;;5076900;28;20020;-83
2021/12/03 03:31:40;;;;;;;6.07;4.68;;;2.30;99.90;;;;;;5094978;28;20020;-83
2021/12/03 03:34:08;;;;;;;9.48;5.25;;;2.30;99.90;;;;;;5076742;28;20166;-84
2021/12/03 03:36:35;;;;;;;7.20;4.57;;;2.40;99.90;;;;;;5094864;28;20028;-83
2021/12/03 03:39:04;;;;;;;7.53;5.10;;;2.40;99.90;;;;;;5073209;28;20048;-84
2021/12/03 03:41:29;;;;;;;6.82;4.68;;;2.40;99.90;;;;;;5074630;28;20024;-83
2021/12/03 03:43:55;;;;;;;6.78;4.43;;;2.40;99.90;;;;;;5090139;28;20025;-83
2021/12/03 03:46:21;;;;;;;8.30;4.43;;;2.50;99.90;;;;;;5090039;28;20064;-83
2021/12/03 03:48:47;;;;;;;8.73;4.82;;;2.60;99.90;;;;;;5089724;28;20020;-84
2021/12/03 03:51:13;;;;;;;9.05;4.68;;;2.50;99.90;;;;;;5089742;28;20024;-83
2021/12/03 03:53:40;;;;;;;7.28;4.88;;;2.40;99.90;;;;;;5074417;28;20045;-83
2021/12/03 03:56:08;;;;;;;5.82;3.95;;;2.40;99.90;;;;;;5074661;28;20486;-83
2021/12/03 03:58:34;;;;;;;5.75;4.43;;;2.60;99.90;;;;;;5089818;28;20480;-83
2021/12/03 04:01:00;;;;;;;5.82;4.75;;;2.40;99.90;;;;;;5074482;28;20093;-84
2021/12/03 04:03:26;;;;;;;6.55;4.38;;;2.50;99.90;;;;;;5074151;28;20029;-83
2021/12/03 04:05:53;;;;;;;7.20;5.15;;;2.60;99.90;;;;;;5074060;28;20111;-84
2021/12/03 04:08:18;;;;;;;5.88;4.63;;;2.50;99.90;;;;;;5074080;28;20016;-84
2021/12/03 04:10:46;;;;;;;6.88;4.68;;;2.50;99.90;;;;;;5089589;28;20040;-83
2021/12/03 04:13:11;;;;;;;8.05;4.93;;;2.50;99.90;;;;;;5089614;28;20020;-84
2021/12/03 04:15:37;;;;;;;6.28;4.90;;;2.50;99.90;;;;;;5073945;28;20020;-84
2021/12/03 04:18:04;;;;;;;7.68;5.50;;;2.40;99.90;;;;;;5089496;28;20116;-84
2021/12/03 04:20:30;;;;;;;26.38;12.32;;;2.50;99.90;;;;;;5089412;28;20541;-83
2021/12/03 04:22:55;;;;;;;12.88;6.60;;;2.40;99.90;;;;;;5072557;28;20089;-83
2021/12/03 04:25:22;;;;;;;10.57;5.65;;;2.10;99.90;;;;;;5089182;28;20039;-83
2021/12/03 04:27:50;;;;;;;6.15;4.88;;;2.20;99.90;;;;;;5073715;28;20019;-83
2021/12/03 04:30:23;;;;;;;9.32;4.70;;;2.20;99.90;;;;;;5073598;28;20445;-83
2021/12/03 04:32:50;;;;;;;7.53;5.03;;;2.40;99.90;;;;;;5073919;28;20104;-83
2021/12/03 04:35:16;;;;;;;7.65;4.95;;;2.50;99.90;;;;;;5073906;28;20385;-83
2021/12/03 04:37:42;;;;;;;7.25;4.95;;;2.60;99.90;;;;;;5079931;28;20040;-83
2021/12/03 04:40:10;;;;;;;7.75;5.63;;;2.60;99.90;;;;;;5097431;28;20031;-82
2021/12/03 04:42:36;;;;;;;7.88;5.10;;;2.40;99.90;;;;;;5076330;28;20458;-83
2021/12/03 04:45:04;;;;;;;5.28;4.38;;;2.30;99.90;;;;;;5075660;28;20503;-83
2021/12/03 04:47:30;;;;;;;9.40;5.88;;;2.30;99.90;;;;;;5075547;28;20114;-83
2021/12/03 04:49:55;;;;;;;8.82;5.20;;;2.40;99.90;;;;;;5075766;28;20027;-83
2021/12/03 04:52:21;;;;;;;8.20;5.22;;;2.30;99.90;;;;;;5075463;28;20161;-83
2021/12/03 04:54:47;;;;;;;9.55;5.55;;;2.20;99.90;;;;;;5075366;28;20035;-83
2021/12/03 04:57:13;;;;;;;8.18;5.68;;;2.40;99.90;;;;;;5093750;28;20028;-83
2021/12/03 04:59:39;;;;;;;14.43;6.40;;;2.20;99.90;;;;;;5093466;28;20051;-83
2021/12/03 05:02:04;;;;;;;9.00;5.88;;;2.30;99.90;;;;;;5075326;28;20487;-83
2021/12/03 05:04:36;;;;;;;7.22;5.40;;;2.20;99.90;;;;;;5093315;28;20024;-83
2021/12/03 05:09:30;;;;;;;7.85;5.75;;;1.90;99.90;;;;;;5093655;28;20036;-83
2021/12/03 05:11:55;;;;;;;8.23;5.50;;;2.10;99.90;;;;;;5075185;28;20139;-83
2021/12/03 05:14:21;;;;;;;9.15;5.30;;;2.20;99.90;;;;;;5075117;28;20081;-83
2021/12/03 05:16:48;;;;;;;6.82;5.05;;;2.30;99.90;;;;;;5075157;28;20042;-83
2021/12/03 05:19:15;;;;;;;8.30;4.60;;;2.00;99.90;;;;;;5075148;28;20031;-83
2021/12/03 05:21:42;;;;;;;8.73;5.32;;;2.10;99.90;;;;;;5075167;28;20027;-83
2021/12/03 05:24:08;;;;;;;8.57;5.00;;;2.10;99.90;;;;;;5093206;28;20118;-83
2021/12/03 05:26:35;;;;;;;7.18;4.38;;;2.20;99.90;;;;;;5075054;28;20470;-83
2021/12/03 05:29:01;;;;;;;7.07;5.55;;;2.30;99.90;;;;;;5075063;28;20016;-83
2021/12/03 05:31:27;;;;;;;9.25;5.03;;;2.50;99.90;;;;;;5074939;28;20028;-83
2021/12/03 05:33:53;;;;;;;8.45;5.43;;;2.30;99.90;;;;;;5093470;28;20043;-83
2021/12/03 05:36:19;;;;;;;8.70;5.13;;;2.20;99.90;;;;;;5093041;28;20020;-83
2021/12/03 05:38:44;;;;;;;6.43;4.80;;;2.00;99.90;;;;;;5092886;28;20044;-83
2021/12/03 05:41:10;;;;;;;6.68;4.80;;;1.80;99.90;;;;;;5074952;28;20028;-83
2021/12/03 05:43:36;;;;;;;7.32;5.28;;;1.80;99.90;;;;;;5074896;28;20483;-83
2021/12/03 05:46:02;;;;;;;7.75;4.88;;;1.90;99.90;;;;;;5092947;28;20061;-84
2021/12/03 05:48:27;;;;;;;6.70;5.13;;;1.80;99.90;;;;;;5092894;28;20035;-83
2021/12/03 05:50:53;;;;;;;10.23;6.45;;;1.80;99.90;;;;;;5092928;28;20020;-83
2021/12/03 05:53:19;;;;;;;7.93;5.75;;;1.70;99.90;;;;;;5075824;28;20030;-84
2021/12/03 05:55:45;;;;;;;7.70;5.90;;;1.80;99.90;;;;;;5074826;28;20084;-83
2021/12/03 05:58:11;;;;;;;6.50;4.88;;;1.90;99.90;;;;;;5074717;28;20496;-83
2021/12/03 06:00:40;;;;;;;8.23;5.28;;;2.20;99.90;;;;;;5075004;28;20379;-83
2021/12/03 06:03:06;;;;;;;5.93;5.30;;;2.30;99.90;;;;;;5074711;28;20101;-84
2021/12/03 06:05:33;;;;;;;8.40;5.38;;;2.40;99.90;;;;;;5074498;28;20028;-84
2021/12/03 06:07:59;;;;;;;8.35;5.40;;;2.40;99.90;;;;;;5074604;28;20020;-83
2021/12/03 06:10:26;;;;;;;12.50;5.75;;;2.30;99.90;;;;;;5074584;28;20036;-83
2021/12/03 06:12:53;;;;;;;6.85;4.70;;;2.30;99.90;;;;;;5093871;28;20016;-84
2021/12/03 06:15:19;;;;;;;7.78;4.85;;;2.30;99.90;;;;;;5078282;28;20032;-83
2021/12/03 06:17:45;;;;;;;6.97;4.97;;;2.40;99.90;;;;;;5078306;28;20024;-83
2021/12/03 06:20:12;;;;;;;11.57;5.63;;;2.50;99.90;;;;;;5078598;28;20052;-83
2021/12/03 06:22:39;;;;;;;7.68;5.55;;;2.30;99.90;;;;;;5078258;28;20365;-83
2021/12/03 06:25:07;;;;;;;7.43;5.00;;;2.30;99.90;;;;;;5096499;28;20052;-83
2021/12/03 06:27:32;;;;;;;6.03;4.75;;;2.20;99.90;;;;;;5078033;28;20107;-83
2021/12/03 06:29:59;;;;;;;8.95;4.35;;;2.30;99.90;;;;;;5078052;28;20040;-82
2021/12/03 06:32:25;;;;;;;5.75;4.30;;;2.40;99.90;;;;;;5078038;28;20020;-82
2021/12/03 06:34:52;;;;;;;6.43;4.38;;;2.20;99.90;;;;;;5077951;28;20054;-82
2021/12/03 06:37:18;;;;;;;6.05;4.40;;;2.30;99.90;;;;;;5095943;28;20027;-82
2021/12/03 06:39:43;;;;;;;7.32;4.07;;;2.30;99.90;;;;;;5077972;28;20032;-82
2021/12/03 06:42:09;;;;;;;8.15;4.53;;;2.10;99.90;;;;;;5077835;28;20028;-82
2021/12/03 06:44:35;;;;;;;7.65;5.20;;;1.90;99.90;;;;;;5077689;28;20032;-82
2021/12/03 06:47:02;;;;;;;7.60;5.60;;;1.80;99.90;;;;;;5077824;28;20023;-82
2021/12/03 06:49:29;;;;;;;7.68;4.80;;;1.70;99.90;;;;;;5077977;28;20024;-81
2021/12/03 06:52:01;;;;;;;7.65;4.43;;;1.80;99.90;;;;;;5078143;28;20016;-82
2021/12/03 06:54:30;;;;;;;6.88;4.40;;;1.90;99.90;;;;;;5077750;28;20062;-82
2021/12/03 06:56:56;;;;;;;6.90;4.25;;;2.00;99.90;;;;;;5095857;28;20425;-82
2021/12/03 06:59:23;;;;;;;6.35;4.25;;;2.10;99.90;;;;;;5077573;28;20020;-82
2021/12/03 07:01:51;;;;;;;6.55;4.25;;;2.10;99.90;;;;;;5095993;28;20526;-82
2021/12/03 07:04:17;;;;;;;6.13;4.05;;;2.20;99.90;;;;;;5077491;28;20023;-82
2021/12/03 07:06:44;;;;;;;6.97;4.63;;;2.30;99.90;;;;;;5077602;28;20475;-82
2021/12/03 07:09:10;;;;;;;5.47;3.92;;;2.20;99.90;;;;;;5095513;28;20016;-82
2021/12/03 07:11:36;;;;;;;5.85;4.15;;;2.30;99.90;;;;;;5095451;28;20042;-82
2021/12/03 07:14:02;;;;;;;8.05;4.40;;;2.20;99.90;;;;;;5077273;28;20024;-82
2021/12/03 07:16:28;;;;;;;5.32;4.05;;;2.20;99.90;;;;;;5077221;28;20024;-82
2021/12/03 07:18:54;;;;;;;7.85;5.28;;;2.40;99.90;;;;;;5095310;28;20039;-82
2021/12/03 07:21:21;;;;;;;8.20;4.32;;;2.10;99.90;;;;;;5095519;28;20028;-82
2021/12/03 07:23:50;;;;;;;6.53;4.28;;;2.10;99.90;;;;;;5076357;28;20031;-82
2021/12/03 07:26:16;;;;;;;6.35;3.67;;;2.20;99.90;;;;;;5076511;28;20024;-83
2021/12/03 07:28:42;;;;;;;5.47;3.25;;;2.10;99.90;;;;;;5077466;28;20028;-82
2021/12/03 07:31:08;;;;;;;7.93;3.53;;;2.20;99.90;;;;;;5095124;28;20027;-82
2021/12/03 07:33:34;;;;;;;3.95;3.28;;;2.30;99.90;;;;;;5076843;28;20023;-82
2021/12/03 07:36:00;;;;;;;5.97;3.42;;;2.40;99.90;;;;;;5095020;28;20048;-82
2021/12/03 07:38:25;;;;;;;8.63;4.10;;;2.30;99.90;;;;;;5094648;28;20404;-82
2021/12/03 07:40:51;;;;;;;6.32;3.03;;;2.10;99.90;;;;;;5094818;28;20035;-82
2021/12/03 07:43:18;;;;;;;3.45;3.05;;;2.00;99.90;;;;;;5076604;28;20028;-82
2021/12/03 07:45:46;;;;;;;7.40;3.17;;;2.00;99.90;;;;;;5076641;28;20044;-82
2021/12/03 07:48:12;;;;;;;4.55;3.20;;;2.00;99.90;;;;;;5076510;28;20024;-83
2021/12/03 07:50:40;;;;;;;7.15;3.10;;;2.20;99.90;;;;;;5076826;28;20024;-82
2021/12/03 07:53:08;;;;;;;5.05;3.10;;;2.10;99.90;;;;;;5076530;28;20042;-82
2021/12/03 07:55:35;;;;;;;5.22;2.80;;;2.30;99.90;;;;;;5094599;28;20124;-82
2021/12/03 07:58:04;;;;;;;6.53;3.25;;;2.30;99.90;;;;;;5076449;28;20020;-82
2021/12/03 08:00:30;;;;;;;12.15;5.07;;;2.40;99.90;;;;;;5094508;28;20024;-82
2021/12/03 08:02:56;;;;;;;6.53;3.20;;;2.40;99.90;;;;;;5076305;28;20468;-83
2021/12/03 08:05:21;;;;;;;4.25;3.10;;;2.40;99.90;;;;;;5094343;28;20050;-82
2021/12/03 08:07:49;;;;;;;5.00;2.80;;;2.60;99.90;;;;;;5076208;28;20519;-82
2021/12/03 08:10:15;;;;;;;4.60;3.10;;;3.00;99.90;;;;;;5094332;28;20051;-82
2021/12/03 08:12:43;;;;;;;4.35;2.50;;;3.10;99.90;;;;;;5076129;28;20017;-82
2021/12/03 08:15:09;;;;;;;7.65;3.08;;;3.20;99.90;;;;;;5094251;28;20054;-82
2021/12/03 08:17:36;;;;;;;8.63;3.25;;;3.40;99.90;;;;;;5094203;28;20368;-82
2021/12/03 08:20:04;;;;;;;4.65;2.88;;;3.30;99.90;;;;;;5075891;28;20031;-81
2021/12/03 08:22:29;;;;;;;6.32;2.85;;;3.60;99.90;;;;;;5094098;28;20035;-82
2021/12/03 08:24:55;;;;;;;4.70;2.63;;;3.70;99.90;;;;;;5075829;28;20475;-81
2021/12/03 08:27:21;;;;;;;5.38;2.50;;;3.50;99.90;;;;;;5075871;28;20027;-81
2021/12/03 08:29:46;;;;;;;5.55;2.33;;;3.60;99.90;;;;;;5075830;28;20016;-81
2021/12/03 08:32:12;;;;;;;3.55;1.85;;;3.90;99.90;;;;;;5075748;28;20050;-83
2021/12/03 08:34:39;;;;;;;3.67;2.22;;;3.70;99.90;;;;;;5075731;28;20020;-80
2021/12/03 08:37:07;;;;;;;4.53;2.00;;;3.40;99.90;;;;;;5075388;28;20111;-81
2021/12/03 08:39:33;;;;;;;4.45;1.92;;;3.40;99.90;;;;;;5093690;28;20041;-80
2021/12/03 08:41:59;;;;;;;5.03;2.10;;;3.20;99.90;;;;;;5093802;28;20034;-80
2021/12/03 08:44:25;;;;;;;5.38;2.03;;;3.20;99.90;;;;;;5075560;28;20020;-81
2021/12/03 08:46:58;;;;;;;3.13;1.92;;;3.10;99.90;;;;;;5075543;28;20032;-81
2021/12/03 08:52:49;;;;;;;6.53;1.98;;;3.20;99.90;;;;;;5093960;28;20024;-80
2021/12/03 08:54:52;;;;;;;5.10;2.25;;;3.10;99.90;;;;;;5082650;28;20040;-81
2021/12/03 08:57:25;;;;;;;5.22;2.35;;;3.10;99.90;;;;;;5094078;28;20375;-80
2021/12/03 08:59:54;;;;;;;3.40;2.43;;;2.90;99.90;;;;;;5075617;28;20016;-82
2021/12/03 09:02:20;;;;;;;2.40;1.88;;;3.30;99.90;;;;;;5075344;28;20107;-81
2021/12/03 09:04:47;;;;;;;6.05;2.55;;;3.30;99.90;;;;;;5075299;28;20391;-81
2021/12/03 09:07:13;;;;;;;9.07;2.60;;;3.50;99.90;;;;;;5093375;28;20022;-81
2021/12/03 09:09:39;;;;;;;5.65;2.38;;;3.50;99.90;;;;;;5075235;28;20119;-81
2021/12/03 09:12:05;;;;;;;6.00;2.47;;;3.30;99.90;;;;;;5075218;28;20117;-82
2021/12/03 09:14:45;;;;;;;3.65;2.30;;;3.40;99.90;;;;;;5093307;28;20027;-81
2021/12/03 09:22:47;;;;;;;5.28;3.28;;;3.80;99.90;;;;;;5093604;28;20020;-82
2021/12/03 09:25:18;;;;;;;7.45;2.88;;;3.90;99.90;;;;;;5093455;28;20024;-82
2021/12/03 09:27:45;;;;;;;5.55;2.53;;;3.80;99.90;;;;;;5075126;28;20028;-80
2021/12/03 09:30:14;;;;;;;7.20;2.63;;;4.10;99.90;;;;;;5075118;28;20112;-82
2021/12/03 09:32:42;;;;;;;3.85;2.50;;;4.40;99.90;;;;;;5093143;28;20020;-82
2021/12/03 09:35:11;;;;;;;4.72;2.72;;;4.70;99.90;;;;;;5074989;28;20028;-82
2021/12/03 09:37:37;;;;;;;4.95;2.25;;;4.90;99.90;;;;;;5074821;28;20055;-82
2021/12/03 09:40:08;;;;;;;5.80;2.70;;;5.40;99.90;;;;;;5075051;28;20032;-82
2021/12/03 09:42:37;;;;;;;4.97;2.50;;;5.50;99.90;;;;;;5093383;28;20105;-82
2021/12/03 09:45:05;;;;;;;4.38;2.78;;;5.40;99.90;;;;;;5074873;28;20032;-81
2021/12/03 09:47:31;;;;;;;4.05;2.03;;;5.60;99.90;;;;;;5075538;28;20020;-81
2021/12/03 09:49:59;;;;;;;4.18;2.20;;;5.70;99.90;;;;;;5078892;28;20035;-82
2021/12/03 09:54:55;;;;;;;5.47;2.17;;;5.70;99.90;;;;;;5096987;28;20012;-82
2021/12/03 10:18:58;;;;;;;4.75;2.80;;;4.70;99.90;;;;;;5096882;28;20051;-82
2021/12/03 10:36:12;;;;;;;5.13;2.80;;;4.40;99.90;;;;;;5096253;28;20357;-81
2021/12/03 10:52:28;;;;;;;4.85;2.85;;;4.80;99.90;;;;;;5096547;28;20035;-82
2021/12/03 11:01:40;;;;;;;3.65;2.00;;;6.30;99.90;;;;;;5013815;28;20413;-83
2021/12/03 11:20:18;;;;;;;6.55;2.70;;;6.60;99.90;;;;;;5096075;28;20035;-82
2021/12/03 11:39:09;;;;;;;3.92;2.70;;;3.80;99.90;;;;;;5094828;28;20057;-83
2021/12/03 13:31:42;;;;;;;3.55;1.75;;;4.50;99.90;;;;;;5093788;28;20081;-80
2021/12/03 14:41:44;;;;;;;1.83;1.63;;;3.60;99.90;;;;;;5096171;28;20031;-81
2021/12/03 14:44:21;;;;;;;4.77;2.43;;;3.50;99.90;;;;;;5078023;28;20616;-80
2021/12/03 14:52:13;;;;;;;4.57;2.00;;;3.50;99.90;;;;;;5095979;28;20026;-80
2021/12/03 14:57:40;;;;;;;3.60;2.00;;;3.30;99.90;;;;;;5095933;28;20032;-80
2021/12/03 15:00:20;;;;;;;4.07;1.85;;;3.20;99.90;;;;;;5094352;28;20040;-80
2021/12/03 15:08:23;;;;;;;3.88;1.60;;;3.10;99.90;;;;;;5095709;28;20154;-80
2021/12/03 15:54:11;;;;;;;7.07;2.67;;;2.10;99.90;;;;;;5095402;28;20074;-80
2021/12/03 16:04:14;;;;;;;4.78;1.92;;;2.50;99.90;;;;;;5094950;28;20108;-80
2021/12/03 16:09:19;;;;;;;5.10;1.80;;;2.40;99.90;;;;;;5094742;28;20028;-80
2021/12/03 16:11:56;;;;;;;3.53;1.83;;;2.30;99.90;;;;;;5076235;28;20020;-80
2021/12/03 16:19:56;;;;;;;4.55;2.50;;;2.20;99.90;;;;;;5094906;28;20105;-81
2021/12/03 16:22:33;;;;;;;7.93;2.90;;;2.30;99.90;;;;;;5094067;28;20024;-80
2021/12/03 16:46:59;;;;;;;5.22;2.45;;;2.10;99.90;;;;;;5093732;28;20115;-81
2021/12/03 16:52:00;;;;;;;6.35;2.70;;;2.20;99.90;;;;;;5093705;28;20020;-80
2021/12/03 16:54:36;;;;;;;4.65;1.83;;;2.30;99.90;;;;;;5075428;28;20422;-80
2021/12/03 16:57:02;;;;;;;3.85;1.95;;;2.20;99.90;;;;;;5075274;28;20109;-80
2021/12/03 16:59:28;;;;;;;5.65;2.40;;;2.20;99.90;;;;;;5075462;28;20449;-80
2021/12/03 17:12:28;;;;;;;7.85;2.20;;;2.30;99.90;;;;;;5048508;28;20046;-80
2021/12/03 17:28:35;;;;;;;9.23;2.90;;;2.50;99.90;;;;;;5093281;28;20020;-80
2021/12/03 17:30:53;;;;;;;4.63;2.75;;;2.50;99.90;;;;;;5092807;28;20024;-80
2021/12/03 17:47:38;;;;;;;7.20;3.90;;;2.30;99.90;;;;;;5093145;28;19965;-81
2021/12/03 18:00:26;;;;;;;11.63;5.00;;;1.90;99.90;;;;;;5092976;28;20383;-80
2021/12/03 18:02:56;;;;;;;9.75;3.80;;;1.80;99.90;;;;;;5074793;28;20020;-80
2021/12/03 18:51:24;;;;;;;5.75;3.85;;;2.00;99.90;;;;;;5096034;28;20426;-80
2021/12/03 18:59:08;;;;;;;6.70;3.80;;;2.00;99.90;;;;;;5081116;28;20039;-80
2021/12/03 19:01:34;;;;;;;9.63;4.88;;;2.10;99.90;;;;;;5095767;28;20110;-80
2021/12/03 19:04:24;;;;;;;6.40;3.78;;;2.20;99.90;;;;;;5077662;28;20028;-80
2021/12/03 19:06:56;;;;;;;9.35;3.95;;;2.30;99.90;;;;;;5077582;28;20077;-80
2021/12/03 19:09:33;;;;;;;6.18;3.50;;;2.20;99.90;;;;;;5095715;28;20016;-80
2021/12/03 19:12:08;;;;;;;6.38;3.60;;;2.30;99.90;;;;;;5077500;28;20017;-80
2021/12/03 19:14:37;;;;;;;6.18;3.45;;;2.30;99.90;;;;;;5077418;28;20536;-80
2021/12/03 19:17:06;;;;;;;7.70;3.33;;;2.40;99.90;;;;;;5077307;28;20032;-80
2021/12/03 19:19:36;;;;;;;7.53;3.70;;;2.50;99.90;;;;;;5077269;28;20065;-80
2021/12/03 19:22:04;;;;;;;7.10;3.95;;;2.40;99.90;;;;;;5095678;28;20024;-80
2021/12/03 19:24:30;;;;;;;8.07;4.60;;;2.50;99.90;;;;;;5077187;28;20028;-80
2021/12/03 19:26:56;;;;;;;7.20;4.15;;;2.40;99.90;;;;;;5077115;28;20489;-80
2021/12/03 19:29:24;;;;;;;7.15;4.40;;;2.30;99.90;;;;;;5095242;28;20104;-79
2021/12/03 19:31:51;;;;;;;7.00;4.35;;;2.00;99.90;;;;;;5095400;28;20035;-80
2021/12/03 19:34:20;;;;;;;8.05;4.43;;;2.00;99.90;;;;;;5078955;28;20042;-80
2021/12/03 19:36:47;;;;;;;6.15;4.10;;;2.10;99.90;;;;;;5080550;28;20427;-80
2021/12/03 19:39:15;;;;;;;11.77;4.15;;;2.20;99.90;;;;;;5095537;28;20556;-80
2021/12/03 19:44:14;;;;;;;7.20;4.55;;;2.20;99.90;;;;;;5095475;28;20031;-84
2021/12/03 19:46:44;;;;;;;10.00;4.47;;;2.20;99.90;;;;;;5076696;28;20024;-83
2021/12/03 19:51:47;;;;;;;8.38;4.45;;;2.00;99.90;;;;;;5094989;28;20545;-84
2021/12/03 19:54:14;;;;;;;9.45;4.22;;;1.90;99.90;;;;;;5094896;28;20080;-84
2021/12/03 19:56:40;;;;;;;7.50;4.38;;;2.00;99.90;;;;;;5076646;28;20028;-83
2021/12/03 19:59:08;;;;;;;7.57;4.75;;;1.90;99.90;;;;;;5076577;28;20035;-84
2021/12/03 20:01:35;;;;;;;7.82;4.68;;;2.10;99.90;;;;;;5076490;28;20028;-84
2021/12/03 20:04:03;;;;;;;8.25;4.63;;;2.20;99.90;;;;;;5076505;28;20028;-84
2021/12/03 20:06:29;;;;;;;5.40;4.30;;;2.30;99.90;;;;;;5076322;28;20024;-84
2021/12/03 20:08:58;;;;;;;9.07;5.47;;;2.20;99.90;;;;;;5094481;28;20024;-84
2021/12/03 20:11:38;;;;;;;10.18;4.85;;;2.10;99.90;;;;;;5076315;28;20024;-84
2021/12/03 20:14:06;;;;;;;7.95;4.97;;;2.10;99.90;;;;;;5076188;28;20119;-84
2021/12/03 20:19:08;;;;;;;17.52;4.88;;;2.20;99.90;;;;;;5094927;28;20035;-84
2021/12/03 20:21:37;;;;;;;9.40;4.75;;;2.20;99.90;;;;;;5076111;28;20031;-83
2021/12/03 20:26:47;;;;;;;7.53;5.10;;;2.20;99.90;;;;;;5094261;28;20450;-84
2021/12/03 20:29:21;;;;;;;11.93;4.80;;;2.30;99.90;;;;;;5094471;28;20736;-84
2021/12/03 20:31:58;;;;;;;7.18;4.63;;;2.40;99.90;;;;;;5093655;28;20385;-84
2021/12/03 20:34:45;;;;;;;8.38;5.10;;;2.30;99.90;;;;;;5075911;28;20077;-84
2021/12/03 20:37:14;;;;;;;6.90;4.45;;;2.20;99.90;;;;;;5075847;28;20034;-83
2021/12/03 20:39:42;;;;;;;9.40;5.18;;;2.20;99.90;;;;;;5053710;28;20439;-83
2021/12/03 20:58:28;;;;;;;6.85;4.70;;;2.10;99.90;;;;;;5053540;28;20028;-82
2021/12/03 21:08:57;;;;;;;6.53;4.97;;;1.90;99.90;;;;;;5053850;28;20112;-83
2021/12/03 21:11:34;;;;;;;9.68;5.60;;;1.90;99.90;;;;;;5051976;28;20021;-83
2021/12/03 21:14:03;;;;;;;8.48;5.47;;;1.90;99.90;;;;;;5052723;28;20108;-82
2021/12/03 21:16:48;;;;;;;9.18;5.72;;;1.90;99.90;;;;;;5053412;28;20032;-83
2021/12/03 21:19:31;;;;;;;8.40;5.28;;;1.90;99.90;;;;;;5051895;28;20028;-83
2021/12/03 21:22:20;;;;;;;9.15;5.32;;;2.00;99.90;;;;;;5051834;28;20025;-83
2021/12/03 21:24:46;;;;;;;9.15;4.88;;;2.10;99.90;;;;;;5052624;28;20041;-82
2021/12/03 21:27:19;;;;;;;8.63;5.25;;;2.10;99.90;;;;;;5053024;28;20035;-82
2021/12/03 21:40:24;;;;;;;11.98;5.68;;;2.10;99.90;;;;;;5094079;28;20031;-84